createdAt,value
2023-04-20T05:06:53.789Z,100860.25
2023-04-20T05:11:55.414Z,100875.41
2023-04-20T05:17:01.182Z,100891.66
2023-04-20T05:22:04.907Z,100889.50
2023-04-20T05:27:06.409Z,100902.31
2023-04-20T05:32:09.013Z,100907.19
2023-04-20T05:37:13.361Z,100915.31
2023-04-20T05:42:14.790Z,100921.97
2023-04-20T05:47:16.289Z,100910.34
2023-04-20T05:52:17.818Z,100918.34
2023-04-20T05:57:19.260Z,100934.22
2023-04-20T06:02:21.416Z,100924.59
2023-04-20T06:45:47.008Z,100916.63
2023-04-20T06:50:51.589Z,100924.78
2023-04-20T06:55:56.789Z,100913.63
2023-04-20T07:00:58.230Z,100914.88
2023-04-20T07:05:59.704Z,100921.31
2023-04-20T07:11:01.243Z,100914.78
2023-04-20T07:16:03.045Z,100919.19
2023-04-20T07:21:04.473Z,100927.41
2023-04-20T07:26:06.135Z,100928.97
2023-04-20T07:31:07.612Z,100921.28
2023-04-20T07:36:09.523Z,100931.16
2023-04-20T07:41:11.512Z,100940.28
2023-04-20T07:46:20.553Z,100946.63
2023-04-20T07:51:24.581Z,100943.47
2023-04-20T07:56:26.467Z,100938.13
2023-04-20T08:01:27.842Z,100930.75
2023-04-20T08:06:29.281Z,100940.34
2023-04-20T08:11:30.759Z,100923.97
2023-04-20T08:16:32.210Z,100928.69
2023-04-20T08:21:33.674Z,100932.38
2023-04-20T08:26:36.064Z,100924.78
2023-04-20T08:31:37.594Z,100923.50
2023-04-20T08:36:45.356Z,100922.28
2023-04-20T08:41:48.207Z,100916.06
2023-04-20T08:46:50.842Z,100914.28
2023-04-20T08:51:52.760Z,100908.34
2023-04-20T08:56:54.147Z,100909.81
2023-04-20T09:01:55.780Z,100917.47
2023-04-20T09:06:57.419Z,100924.25
2023-04-20T09:12:04.079Z,100927.25
2023-04-20T09:17:05.628Z,100930.44
2023-04-20T09:22:07.105Z,100933.66
2023-04-20T09:27:18.969Z,100938.94
2023-04-20T09:32:28.467Z,100924.50
2023-04-20T09:37:30.559Z,100922.03
2023-04-20T09:42:33.910Z,100928.47
2023-04-20T09:47:37.116Z,100913.94
2023-04-20T09:52:39.169Z,100909.22
2023-04-20T09:57:41.053Z,100907.09
2023-04-20T10:02:47.212Z,100909.94
2023-04-20T10:07:59.324Z,100904.19
2023-04-20T10:13:01.397Z,100909.91
2023-04-20T10:18:25.623Z,100903.09
2023-04-20T10:23:27.265Z,100909.09
2023-04-20T10:28:42.824Z,100903.41
2023-04-20T10:33:55.857Z,100892.75
2023-04-20T10:38:58.032Z,100890.31
2023-04-20T10:44:10.205Z,100881.56
2023-04-20T10:49:11.924Z,100884.22
2023-04-20T10:54:13.372Z,100880.09
2023-04-20T10:59:17.102Z,100877.47
2023-04-20T11:04:19.321Z,100882.63
2023-04-20T11:09:28.293Z,100880.47
2023-04-20T11:14:38.361Z,100870.84
2023-04-20T11:19:40.681Z,100863.25
2023-04-20T11:24:44.578Z,100868.72
2023-04-20T11:29:55.446Z,100868.59
2023-04-20T11:35:07.113Z,100869.31
2023-04-20T11:40:10.330Z,100864.53
2023-04-20T11:45:11.928Z,100854.72
2023-04-20T11:50:14.386Z,100855.03
2023-04-20T11:55:16.554Z,100852.00
2023-04-20T12:00:18.357Z,100851.69
2023-04-20T12:05:19.868Z,100845.19
2023-04-20T12:10:21.632Z,100843.03
2023-04-20T12:15:23.000Z,100837.53
2023-04-20T12:20:24.475Z,100840.19
2023-04-20T12:25:25.935Z,100839.19
2023-04-20T12:30:27.556Z,100834.66
2023-04-20T12:35:29.248Z,100831.72
2023-04-20T12:40:30.669Z,100820.56
2023-04-20T12:45:32.397Z,100817.56
2023-04-20T12:50:33.820Z,100818.75
2023-04-20T12:55:35.528Z,100810.53
2023-04-20T13:00:37.013Z,100804.56
2023-04-20T13:05:38.484Z,100795.94
2023-04-20T13:10:42.616Z,100789.44
2023-04-20T13:15:44.136Z,100788.47
2023-04-20T13:20:45.649Z,100786.88
2023-04-20T13:25:47.078Z,100781.47
2023-04-20T13:30:48.529Z,100784.19
2023-04-20T13:35:50.003Z,100782.88
2023-04-20T13:40:51.492Z,100783.22
2023-04-20T13:45:52.977Z,100777.16
2023-04-20T13:50:54.744Z,100778.97
2023-04-20T13:55:57.765Z,100770.38
2023-04-20T14:00:59.229Z,100770.13
2023-04-20T14:06:00.673Z,100761.66
2023-04-20T14:11:02.310Z,100752.91
2023-04-20T14:16:09.213Z,100753.66
2023-04-20T14:21:10.751Z,100749.53
2023-04-20T14:26:12.179Z,100739.06
2023-04-20T14:31:13.685Z,100734.22
2023-04-20T14:36:15.154Z,100721.31
2023-04-20T14:41:16.998Z,100719.63
2023-04-20T14:46:18.954Z,100711.78
2023-04-20T14:51:20.942Z,100709.56
2023-04-20T14:56:22.405Z,100703.59
2023-04-20T15:01:23.866Z,100710.03
2023-04-20T15:06:25.497Z,100710.03
2023-04-20T15:11:26.834Z,100702.13
2023-04-20T15:16:28.359Z,100692.41
2023-04-20T15:21:29.719Z,100684.88
2023-04-20T15:26:31.146Z,100675.84
2023-04-20T15:31:32.686Z,100672.22
2023-04-20T15:36:34.077Z,100665.91
2023-04-20T15:41:35.502Z,100658.28
2023-04-20T15:46:38.296Z,100652.06
2023-04-20T15:51:39.805Z,100642.63
2023-04-20T15:56:41.392Z,100640.34
2023-04-20T16:01:42.874Z,100628.09
2023-04-20T16:06:44.270Z,100618.66
2023-04-20T16:11:47.075Z,100624.81
2023-04-20T16:16:48.539Z,100614.94
2023-04-20T16:21:49.886Z,100614.94
2023-04-20T16:26:51.313Z,100616.91
2023-04-20T16:31:52.822Z,100624.88
2023-04-20T16:36:54.314Z,100620.38
2023-04-20T16:41:57.152Z,100624.25
2023-04-20T16:46:58.691Z,100615.75
2023-04-20T16:52:00.156Z,100614.13
2023-04-20T16:57:01.706Z,100611.78
2023-04-20T17:02:03.249Z,100622.00
2023-04-20T17:07:04.773Z,100620.56
2023-04-20T17:12:07.736Z,100621.19
2023-04-20T17:17:09.195Z,100623.84
2023-04-20T17:22:10.662Z,100621.50
2023-04-20T17:27:12.250Z,100620.56
2023-04-20T17:32:14.063Z,100615.44
2023-04-20T17:37:15.937Z,100614.06
2023-04-20T17:42:17.684Z,100618.88
2023-04-20T17:47:19.130Z,100607.13
2023-04-20T17:52:22.178Z,100609.75
2023-04-20T17:57:23.601Z,100610.66
2023-04-20T18:02:25.249Z,100620.78
2023-04-20T18:07:27.837Z,100619.63
2023-04-20T18:12:29.272Z,100625.22
2023-04-20T18:17:30.736Z,100623.44
2023-04-20T18:22:32.922Z,100621.06
2023-04-20T18:27:34.331Z,100616.81
2023-04-20T18:32:37.051Z,100627.56
2023-04-20T18:37:38.589Z,100628.56
2023-04-20T18:42:40.078Z,100627.41
2023-04-20T18:47:41.557Z,100630.66
2023-04-20T18:52:43.013Z,100630.25
2023-04-20T18:57:44.459Z,100636.72
2023-04-20T19:02:46.146Z,100636.72
2023-04-20T19:07:47.740Z,100645.28
2023-04-20T19:12:49.091Z,100645.44
2023-04-20T19:17:50.762Z,100646.25
2023-04-20T19:22:52.858Z,100644.72
2023-04-20T19:27:54.329Z,100654.09
2023-04-20T19:32:55.733Z,100651.66
2023-04-20T19:37:58.480Z,100661.50
2023-04-20T19:43:00.058Z,100658.41
2023-04-20T19:48:01.677Z,100654.91
2023-04-20T19:53:03.157Z,100655.44
2023-04-20T19:58:09.156Z,100657.25
2023-04-20T20:03:12.227Z,100659.91
2023-04-20T20:08:14.253Z,100666.63
2023-04-20T20:13:15.945Z,100666.00
2023-04-20T20:18:17.595Z,100669.28
2023-04-20T20:23:19.026Z,100666.91
2023-04-20T20:28:20.370Z,100665.47
2023-04-20T20:33:21.824Z,100673.50
2023-04-20T20:38:23.235Z,100664.72
2023-04-20T20:43:25.190Z,100669.00
2023-04-20T20:48:26.745Z,100674.56
2023-04-20T20:53:28.104Z,100676.88
2023-04-20T20:58:29.528Z,100676.16
2023-04-20T21:03:31.426Z,100678.41
2023-04-20T21:08:33.016Z,100683.75
2023-04-20T21:13:34.515Z,100691.97
2023-04-20T21:18:35.941Z,100689.94
2023-04-20T21:23:37.385Z,100690.03
2023-04-20T21:28:38.851Z,100689.34
2023-04-20T21:33:40.364Z,100681.72
2023-04-20T21:38:41.805Z,100684.41
2023-04-20T21:43:43.590Z,100691.09
2023-04-20T21:48:45.116Z,100695.09
2023-04-20T21:53:46.637Z,100693.78
2023-04-20T21:58:48.677Z,100697.06
2023-04-20T22:03:50.456Z,100689.69
2023-04-20T22:08:52.034Z,100687.63
2023-04-20T22:13:53.728Z,100688.16
2023-04-20T22:18:55.238Z,100689.84
2023-04-20T22:23:56.594Z,100687.19
2023-04-20T22:28:58.028Z,100688.34
2023-04-20T22:33:59.476Z,100692.22
2023-04-20T22:39:00.991Z,100698.16
2023-04-20T22:44:02.451Z,100695.63
2023-04-20T22:49:04.289Z,100697.06
2023-04-20T22:54:06.285Z,100694.03
2023-04-20T22:59:07.867Z,100698.50
2023-04-20T23:04:09.376Z,100706.28
2023-04-20T23:09:12.416Z,100704.47
2023-04-20T23:14:14.230Z,100711.53
2023-04-20T23:19:15.907Z,100708.19
2023-04-20T23:24:17.353Z,100695.34
2023-04-20T23:29:18.971Z,100697.75
2023-04-20T23:34:20.659Z,100700.28
2023-04-20T23:39:22.393Z,100700.13
2023-04-20T23:44:23.819Z,100699.75
2023-04-20T23:49:25.372Z,100689.94
2023-04-20T23:54:26.918Z,100686.41
2023-04-20T23:59:28.353Z,100690.25
